Time;durP1;ratioP1;P1;durP2;ratioP2;P2;SDS_P1;SDS_P2;PMS_P1;PMS_P2;Temp;Humidity;BMP_temperature;BMP_pressure;BME280_temperature;BME280_humidity;BME280_pressure;Samples;Min_cycle;Max_cycle;Signal;HPM_P1;HPM_P2
2022/12/26 00:02:14;;;;;;;94.78;49.72;;;12.50;1.00;;;;;;5027301;28;20037;-63
2022/12/26 00:04:40;;;;;;;92.68;48.97;;;12.40;1.00;;;;;;5025116;28;20224;-63
2022/12/26 00:07:06;;;;;;;91.55;50.22;;;12.40;1.00;;;;;;5026887;28;20026;-63
2022/12/26 00:09:32;;;;;;;100.55;49.90;;;12.40;1.00;;;;;;5031936;28;20040;-63
2022/12/26 00:11:58;;;;;;;97.38;50.65;;;12.40;1.00;;;;;;5031831;28;20114;-63
2022/12/26 00:14:24;;;;;;;91.38;48.45;;;12.40;1.00;;;;;;5031723;28;20096;-63
2022/12/26 00:16:49;;;;;;;95.05;49.72;;;12.30;1.00;;;;;;5030384;28;20042;-63
2022/12/26 00:19:15;;;;;;;87.95;47.75;;;12.40;1.00;;;;;;5029889;28;20079;-63
2022/12/26 00:21:41;;;;;;;89.90;51.08;;;12.50;1.00;;;;;;5032045;28;20041;-63
2022/12/26 00:24:08;;;;;;;91.05;50.25;;;12.50;1.00;;;;;;5030851;28;20036;-63
2022/12/26 00:26:35;;;;;;;96.80;50.85;;;12.60;1.00;;;;;;5045855;28;20036;-63
2022/12/26 00:29:00;;;;;;;89.25;49.58;;;12.50;1.00;;;;;;5031257;28;20490;-62
2022/12/26 00:31:29;;;;;;;96.00;49.45;;;12.50;1.00;;;;;;5028417;28;20040;-63
2022/12/26 00:33:55;;;;;;;95.38;49.10;;;12.60;1.00;;;;;;5017804;28;20025;-63
2022/12/26 00:36:26;;;;;;;98.95;50.00;;;12.60;1.00;;;;;;5026762;28;20091;-63
2022/12/26 00:38:53;;;;;;;100.78;49.20;;;12.60;1.00;;;;;;5030045;28;20056;-63
2022/12/26 00:41:19;;;;;;;94.05;51.55;;;12.60;1.00;;;;;;5031503;28;20029;-63
2022/12/26 00:43:49;;;;;;;102.13;50.58;;;12.50;1.00;;;;;;5031342;28;20101;-63
2022/12/26 00:46:15;;;;;;;93.72;50.85;;;12.40;1.00;;;;;;5023488;28;20518;-63
2022/12/26 00:48:41;;;;;;;97.80;49.80;;;12.50;1.00;;;;;;5031279;28;20029;-63
2022/12/26 00:51:07;;;;;;;91.22;48.13;;;12.50;1.00;;;;;;5031157;28;20033;-63
2022/12/26 00:53:33;;;;;;;89.20;48.85;;;12.40;1.00;;;;;;5031209;28;20079;-63
2022/12/26 00:55:59;;;;;;;90.10;49.10;;;12.40;1.00;;;;;;5029599;28;20487;-63
2022/12/26 00:58:25;;;;;;;96.22;49.78;;;12.40;1.00;;;;;;5031244;28;20029;-63
2022/12/26 01:00:51;;;;;;;88.97;47.92;;;12.50;1.00;;;;;;5020928;28;20021;-63
2022/12/26 01:03:17;;;;;;;88.68;48.65;;;12.60;1.00;;;;;;5031231;28;20059;-63
2022/12/26 01:05:45;;;;;;;93.97;49.67;;;12.50;1.00;;;;;;5029971;28;20477;-63
2022/12/26 01:08:11;;;;;;;92.05;51.53;;;12.50;1.00;;;;;;5041957;28;20035;-63
2022/12/26 01:10:40;;;;;;;92.25;47.20;;;12.50;1.00;;;;;;5033157;28;20025;-63
2022/12/26 01:13:06;;;;;;;83.95;46.65;;;12.50;1.00;;;;;;5017789;28;20060;-63
2022/12/26 01:15:32;;;;;;;84.95;47.83;;;12.50;1.00;;;;;;5030619;28;20025;-63
2022/12/26 01:17:59;;;;;;;88.97;47.08;;;12.40;1.00;;;;;;5034721;28;20076;-63
2022/12/26 01:20:25;;;;;;;89.30;48.67;;;12.40;1.00;;;;;;5031902;28;20036;-63
2022/12/26 01:22:50;;;;;;;88.90;48.08;;;12.50;1.00;;;;;;5040734;28;20091;-63
2022/12/26 01:25:16;;;;;;;96.75;50.05;;;12.50;1.00;;;;;;5042703;28;20029;-63
2022/12/26 01:27:42;;;;;;;87.07;46.40;;;12.40;1.00;;;;;;5034383;28;20100;-63
2022/12/26 01:30:10;;;;;;;82.30;45.92;;;12.50;1.00;;;;;;5034432;28;20467;-63
2022/12/26 01:32:35;;;;;;;81.15;44.08;;;12.40;1.00;;;;;;5034230;28;20061;-63
2022/12/26 01:35:01;;;;;;;82.03;42.85;;;12.40;1.00;;;;;;5034714;28;20060;-63
2022/12/26 01:37:33;;;;;;;78.78;44.05;;;12.20;1.00;;;;;;5027650;28;20128;-63
2022/12/26 01:39:58;;;;;;;72.75;41.47;;;12.20;1.00;;;;;;5021787;28;20036;-63
2022/12/26 01:42:37;;;;;;;81.10;43.50;;;12.40;1.00;;;;;;5034257;28;20401;-63
2022/12/26 01:45:21;;;;;;;72.80;42.38;;;12.40;1.00;;;;;;5020248;28;20379;-63
2022/12/26 01:48:12;;;;;;;73.97;43.10;;;12.40;1.00;;;;;;5019048;28;20045;-63
2022/12/26 01:50:50;;;;;;;76.28;43.03;;;12.40;1.00;;;;;;5032430;28;20029;-63
2022/12/26 01:53:28;;;;;;;74.47;41.95;;;12.20;1.00;;;;;;5034500;28;20100;-63
2022/12/26 01:55:58;;;;;;;66.65;38.80;;;12.40;1.00;;;;;;5021611;28;20175;-63
2022/12/26 01:58:31;;;;;;;67.60;39.88;;;12.30;1.00;;;;;;5034158;28;20037;-63
2022/12/26 02:00:57;;;;;;;68.55;39.28;;;12.30;1.00;;;;;;5030401;28;20025;-63
2022/12/26 02:06:09;;;;;;;66.20;39.38;;;12.10;1.00;;;;;;5029387;28;20449;-63
2022/12/26 02:08:35;;;;;;;67.95;38.95;;;12.20;1.00;;;;;;5033927;28;20029;-63
2022/12/26 02:11:25;;;;;;;67.32;39.30;;;12.30;1.00;;;;;;5033842;28;20446;-63
2022/12/26 02:13:51;;;;;;;57.63;35.25;;;12.30;1.00;;;;;;5033204;28;20177;-63
2022/12/26 02:16:26;;;;;;;65.93;38.80;;;12.20;1.00;;;;;;5031349;28;20379;-63
2022/12/26 02:18:52;;;;;;;64.75;37.00;;;12.30;1.00;;;;;;5033215;28;20022;-63
2022/12/26 02:21:23;;;;;;;70.70;40.60;;;12.40;1.00;;;;;;5031875;28;20060;-63
2022/12/26 02:23:52;;;;;;;65.95;39.20;;;12.10;1.00;;;;;;5033013;28;20033;-63
2022/12/26 02:26:40;;;;;;;67.32;37.78;;;12.00;1.00;;;;;;5024159;28;20068;-63
2022/12/26 02:29:48;;;;;;;62.70;36.25;;;12.10;1.00;;;;;;5022275;28;20053;-62
2022/12/26 02:32:39;;;;;;;64.97;37.35;;;12.20;1.00;;;;;;5028171;28;20562;-63
2022/12/26 02:35:31;;;;;;;62.72;38.15;;;12.30;1.00;;;;;;5026838;28;20468;-63
2022/12/26 02:38:39;;;;;;;59.47;36.40;;;12.30;1.00;;;;;;5033047;28;20047;-63
2022/12/26 02:41:38;;;;;;;58.38;35.72;;;12.30;1.00;;;;;;5019469;28;20427;-63
2022/12/26 02:47:09;;;;;;;58.05;36.13;;;12.10;1.00;;;;;;5028719;28;20048;-63
2022/12/26 03:13:22;;;;;;;64.75;38.92;;;12.00;1.00;;;;;;5033724;28;20080;-63
2022/12/26 03:18:49;;;;;;;64.40;36.80;;;12.20;1.00;;;;;;5032417;28;20056;-63
2022/12/26 03:21:20;;;;;;;63.95;37.08;;;12.10;1.00;;;;;;5031256;28;20486;-64
2022/12/26 03:23:48;;;;;;;64.55;37.15;;;12.20;1.00;;;;;;5030067;28;20033;-63
2022/12/26 03:26:38;;;;;;;65.50;37.83;;;12.00;1.00;;;;;;5032490;28;20384;-63
2022/12/26 03:32:04;;;;;;;65.65;38.15;;;11.90;1.00;;;;;;5028235;28;20045;-63
2022/12/26 03:34:42;;;;;;;64.53;38.55;;;12.10;1.00;;;;;;5032116;28;20450;-64
2022/12/26 03:37:55;;;;;;;61.50;35.47;;;12.20;1.00;;;;;;5032074;28;20033;-64
2022/12/26 04:19:28;;;;;;;63.55;37.55;;;12.20;1.00;;;;;;5031829;28;20032;-63
2022/12/26 04:45:09;;;;;;;66.93;36.67;;;12.00;1.00;;;;;;5024198;28;20048;-64
2022/12/26 04:47:35;;;;;;;59.38;35.13;;;12.20;1.00;;;;;;5031464;28;20029;-63
2022/12/26 04:50:11;;;;;;;63.00;37.50;;;12.30;1.00;;;;;;5029971;28;20022;-64
2022/12/26 04:55:34;;;;;;;61.67;39.15;;;12.00;1.00;;;;;;5035038;28;20079;-63
2022/12/26 04:58:00;;;;;;;65.15;38.13;;;12.10;1.00;;;;;;5034879;28;20029;-64
2022/12/26 05:00:27;;;;;;;64.50;38.17;;;12.00;1.00;;;;;;5033286;28;20084;-64
2022/12/26 05:11:20;;;;;;;67.85;39.47;;;12.00;1.00;;;;;;5042355;28;20121;-64
2022/12/26 05:13:45;;;;;;;75.30;41.75;;;12.00;1.00;;;;;;5035158;28;20478;-64
2022/12/26 05:30:18;;;;;;;80.17;42.83;;;12.00;1.00;;;;;;5032772;28;20143;-63
2022/12/26 05:35:28;;;;;;;62.03;32.38;;;11.90;1.00;;;;;;5048231;28;20053;-64
2022/12/26 05:37:54;;;;;;;74.55;41.30;;;12.10;1.00;;;;;;5034460;28;20497;-64
2022/12/26 05:40:23;;;;;;;79.95;43.83;;;12.00;1.00;;;;;;5031023;28;20021;-64
2022/12/26 05:42:48;;;;;;;76.25;41.30;;;12.00;1.00;;;;;;5033991;28;20113;-64
2022/12/26 05:45:14;;;;;;;75.28;40.83;;;12.00;1.00;;;;;;5032430;28;20120;-64
2022/12/26 05:47:39;;;;;;;70.43;40.15;;;12.20;1.00;;;;;;5047643;28;20029;-64
2022/12/26 05:50:07;;;;;;;78.97;41.75;;;12.10;1.00;;;;;;5035724;28;20048;-64
2022/12/26 05:52:33;;;;;;;77.22;42.78;;;11.90;1.00;;;;;;5042932;28;20104;-64
2022/12/26 06:05:39;;;;;;;75.75;41.00;;;12.10;1.00;;;;;;5022148;28;20228;-65
2022/12/26 06:08:05;;;;;;;75.78;42.20;;;12.00;1.00;;;;;;5019011;28;20018;-64
2022/12/26 06:10:30;;;;;;;72.70;41.40;;;12.10;1.00;;;;;;5032151;28;20033;-64
2022/12/26 06:12:58;;;;;;;73.05;39.47;;;12.00;1.00;;;;;;5033739;28;20482;-64
2022/12/26 06:15:24;;;;;;;76.20;41.83;;;12.10;1.00;;;;;;5023297;28;20036;-64
2022/12/26 06:17:49;;;;;;;70.20;40.30;;;12.20;1.00;;;;;;5041567;28;20049;-64
2022/12/26 06:20:15;;;;;;;73.65;41.90;;;12.20;1.00;;;;;;5037756;28;20070;-64
2022/12/26 06:22:41;;;;;;;74.82;42.40;;;12.30;1.00;;;;;;5033947;28;20099;-64
2022/12/26 06:25:07;;;;;;;70.35;40.05;;;12.30;1.00;;;;;;5032301;28;20021;-64
2022/12/26 06:27:33;;;;;;;71.53;39.33;;;12.20;1.00;;;;;;5033430;28;20026;-64
2022/12/26 06:29:58;;;;;;;68.80;39.25;;;12.30;1.00;;;;;;5031640;28;20057;-64
2022/12/26 06:32:24;;;;;;;74.65;41.33;;;12.30;1.00;;;;;;5033607;28;20100;-64
2022/12/26 06:34:49;;;;;;;75.32;40.88;;;12.20;1.00;;;;;;5027817;28;20140;-64
2022/12/26 06:37:15;;;;;;;68.82;38.90;;;12.20;1.00;;;;;;5033138;28;20128;-64
2022/12/26 06:39:41;;;;;;;72.00;40.72;;;12.10;1.00;;;;;;5022524;28;20487;-64
2022/12/26 06:42:08;;;;;;;76.55;43.65;;;11.90;1.00;;;;;;5025882;28;20473;-64
2022/12/26 06:44:34;;;;;;;68.82;40.08;;;12.10;1.00;;;;;;5032895;28;20029;-64
2022/12/26 06:46:59;;;;;;;70.70;40.58;;;12.10;1.00;;;;;;5032923;28;20032;-64
2022/12/26 06:49:25;;;;;;;75.25;41.85;;;12.00;1.00;;;;;;5032824;28;20030;-64
2022/12/26 06:51:51;;;;;;;77.13;41.03;;;12.10;1.00;;;;;;5040182;28;20054;-64
2022/12/26 06:54:17;;;;;;;70.72;40.20;;;12.20;1.00;;;;;;5034559;28;20029;-64
2022/12/26 06:56:42;;;;;;;73.50;39.78;;;12.30;1.00;;;;;;5030585;28;20049;-63
2022/12/26 06:59:10;;;;;;;76.32;42.28;;;12.30;1.00;;;;;;5032705;28;20121;-64
2022/12/26 07:01:36;;;;;;;68.32;41.42;;;12.30;1.00;;;;;;5025863;28;20033;-64
2022/12/26 07:04:03;;;;;;;67.10;40.13;;;12.20;1.00;;;;;;5028380;28;20079;-64
2022/12/26 07:06:37;;;;;;;74.90;41.00;;;12.30;1.00;;;;;;5028617;28;20090;-64
2022/12/26 07:09:13;;;;;;;77.00;42.67;;;12.20;1.00;;;;;;5031082;28;20060;-64
2022/12/26 07:11:41;;;;;;;77.75;41.55;;;12.30;1.00;;;;;;5031019;28;20511;-64
2022/12/26 07:14:07;;;;;;;71.53;39.35;;;12.40;1.00;;;;;;5031678;28;20116;-64
2022/12/26 07:16:35;;;;;;;75.28;42.25;;;12.30;1.00;;;;;;5030803;28;20037;-64
2022/12/26 07:19:01;;;;;;;70.85;40.35;;;12.40;1.00;;;;;;5032294;28;20422;-64
2022/12/26 07:21:27;;;;;;;67.57;39.65;;;12.30;1.00;;;;;;5027263;28;20099;-64
2022/12/26 07:23:54;;;;;;;76.63;41.47;;;12.30;1.00;;;;;;5032203;28;20025;-64
2022/12/26 07:26:20;;;;;;;69.80;42.00;;;12.40;1.00;;;;;;5024659;28;20042;-64
2022/12/26 07:28:45;;;;;;;70.05;39.67;;;12.40;1.00;;;;;;5026784;28;20075;-64
2022/12/26 07:31:19;;;;;;;74.00;42.05;;;12.40;1.00;;;;;;5028094;28;20046;-65
2022/12/26 07:33:48;;;;;;;75.10;41.78;;;12.40;1.00;;;;;;5028215;28;20136;-64
2022/12/26 07:36:14;;;;;;;72.93;41.38;;;12.40;1.00;;;;;;5027802;28;20449;-64
2022/12/26 07:38:40;;;;;;;75.47;41.33;;;12.40;1.00;;;;;;5025548;28;20116;-65
2022/12/26 07:43:50;;;;;;;71.40;40.33;;;12.30;1.00;;;;;;5022798;28;20117;-65
2022/12/26 07:46:15;;;;;;;75.95;42.60;;;12.30;1.00;;;;;;5022870;28;20108;-65
2022/12/26 07:48:41;;;;;;;69.68;41.47;;;12.40;1.00;;;;;;5032044;28;20036;-65
2022/12/26 07:51:07;;;;;;;71.43;41.50;;;12.50;1.00;;;;;;5022881;28;20076;-65
2022/12/26 07:53:33;;;;;;;68.45;39.38;;;12.50;1.00;;;;;;5044724;28;20022;-65
2022/12/26 07:55:59;;;;;;;70.80;41.05;;;12.60;1.00;;;;;;5030760;28;20033;-64
2022/12/26 07:58:24;;;;;;;76.13;42.85;;;12.60;1.00;;;;;;5032104;28;20041;-64
2022/12/26 08:00:50;;;;;;;73.65;42.38;;;12.50;1.00;;;;;;5031607;28;20486;-65
2022/12/26 08:03:16;;;;;;;72.93;41.33;;;12.60;1.00;;;;;;5031642;28;20104;-64
2022/12/26 08:05:46;;;;;;;68.63;40.55;;;12.40;1.00;;;;;;5031465;28;20036;-64
2022/12/26 08:08:12;;;;;;;75.05;43.10;;;12.40;1.00;;;;;;5031630;28;20025;-64
2022/12/26 08:10:38;;;;;;;78.78;41.35;;;12.40;1.00;;;;;;5029935;28;20038;-64
2022/12/26 08:13:03;;;;;;;71.45;40.53;;;12.50;1.00;;;;;;5032030;28;20032;-64
2022/12/26 08:15:29;;;;;;;71.60;40.78;;;12.40;1.00;;;;;;5031374;28;20021;-64
2022/12/26 08:17:54;;;;;;;69.25;40.53;;;12.50;1.00;;;;;;5031624;28;20029;-64
2022/12/26 08:20:20;;;;;;;71.43;41.03;;;12.60;1.00;;;;;;5031380;28;20025;-64
2022/12/26 08:22:46;;;;;;;72.22;41.38;;;12.50;1.00;;;;;;5023758;28;20040;-64
2022/12/26 08:25:11;;;;;;;70.68;41.47;;;12.60;1.00;;;;;;5031541;28;20026;-64
2022/12/26 08:27:37;;;;;;;73.95;41.50;;;12.60;1.00;;;;;;5035682;28;20096;-64
2022/12/26 08:30:03;;;;;;;70.82;41.10;;;12.60;1.00;;;;;;5021713;28;20452;-64
2022/12/26 08:32:37;;;;;;;69.43;41.63;;;12.60;1.00;;;;;;5022570;28;20025;-64
2022/12/26 08:35:03;;;;;;;66.78;39.60;;;12.60;1.00;;;;;;5032726;28;20111;-65
2022/12/26 08:37:29;;;;;;;73.10;40.85;;;12.60;1.00;;;;;;5033602;28;20045;-65
2022/12/26 08:39:54;;;;;;;69.97;40.55;;;12.40;1.00;;;;;;5035418;28;20034;-64
2022/12/26 08:42:20;;;;;;;66.93;39.17;;;12.50;1.00;;;;;;5034958;28;20044;-64
2022/12/26 08:44:46;;;;;;;67.45;38.83;;;12.60;1.00;;;;;;5024262;28;20018;-64
2022/12/26 08:47:13;;;;;;;65.63;37.75;;;12.70;1.00;;;;;;5035181;28;20052;-64
2022/12/26 08:49:39;;;;;;;70.65;41.28;;;12.70;1.00;;;;;;5021207;28;20033;-64
2022/12/26 08:52:04;;;;;;;67.47;40.50;;;12.70;1.00;;;;;;5059478;28;20036;-64
2022/12/26 08:54:30;;;;;;;69.35;41.15;;;12.50;1.00;;;;;;5039421;28;20067;-65
2022/12/26 08:56:56;;;;;;;70.30;41.03;;;12.60;1.00;;;;;;5034818;28;20455;-65
2022/12/26 08:59:22;;;;;;;72.80;41.15;;;12.40;1.00;;;;;;5034755;28;20021;-64
2022/12/26 09:01:47;;;;;;;67.28;39.95;;;12.50;1.00;;;;;;5035030;28;20033;-67
2022/12/26 09:04:13;;;;;;;67.05;39.08;;;12.60;1.00;;;;;;5034407;28;20116;-66
2022/12/26 09:06:40;;;;;;;65.32;40.25;;;12.60;1.00;;;;;;5033439;28;20112;-66
2022/12/26 09:09:11;;;;;;;65.28;40.00;;;12.60;1.00;;;;;;5035438;28;20024;-67
2022/12/26 09:11:41;;;;;;;67.90;38.60;;;12.70;1.00;;;;;;5035219;28;20112;-67
2022/12/26 09:14:07;;;;;;;68.63;38.58;;;12.70;1.00;;;;;;5025071;28;20129;-66
2022/12/26 09:16:37;;;;;;;69.30;40.30;;;12.70;1.00;;;;;;5033747;28;20364;-66
2022/12/26 09:19:04;;;;;;;61.83;39.13;;;12.70;1.00;;;;;;5033013;28;20033;-66
2022/12/26 09:21:31;;;;;;;67.28;39.15;;;12.70;1.00;;;;;;5022301;28;20533;-68
2022/12/26 09:24:02;;;;;;;61.53;37.97;;;12.80;1.00;;;;;;5030098;28;20041;-68
2022/12/26 09:26:29;;;;;;;61.05;38.65;;;12.70;1.00;;;;;;5026401;28;20382;-68
2022/12/26 09:28:55;;;;;;;59.35;37.10;;;12.80;1.00;;;;;;5026888;28;20051;-74
2022/12/26 09:31:23;;;;;;;62.25;38.65;;;12.70;1.00;;;;;;5028765;28;20045;-71
2022/12/26 09:33:49;;;;;;;62.17;39.15;;;12.80;1.00;;;;;;5031954;28;20025;-71
2022/12/26 09:36:18;;;;;;;64.07;40.92;;;12.80;1.00;;;;;;5033099;28;20159;-71
2022/12/26 09:38:45;;;;;;;62.58;39.05;;;12.90;1.00;;;;;;5034141;28;20033;-71
2022/12/26 09:41:29;;;;;;;60.17;37.78;;;12.90;1.00;;;;;;5026239;28;20054;-71
2022/12/26 09:44:29;;;;;;;63.50;37.72;;;12.90;1.00;;;;;;5031597;28;20018;-71
2022/12/26 09:47:14;;;;;;;66.50;39.25;;;12.80;1.00;;;;;;5026987;28;20029;-71
2022/12/26 09:49:58;;;;;;;59.38;36.63;;;13.00;1.00;;;;;;5024302;28;20076;-71
2022/12/26 09:52:42;;;;;;;67.60;40.83;;;13.00;1.00;;;;;;5045567;28;20125;-71
2022/12/26 09:55:29;;;;;;;60.05;37.42;;;12.80;1.00;;;;;;5027908;28;20030;-71
2022/12/26 09:57:58;;;;;;;62.42;39.15;;;12.80;1.00;;;;;;5032983;28;20045;-71
2022/12/26 10:00:28;;;;;;;64.82;40.63;;;12.60;1.00;;;;;;5033783;28;20021;-71
2022/12/26 10:02:57;;;;;;;60.92;37.03;;;12.70;1.00;;;;;;5033851;28;20305;-71
2022/12/26 10:05:33;;;;;;;59.08;38.08;;;12.80;1.00;;;;;;5033778;28;20026;-71
2022/12/26 10:08:10;;;;;;;67.50;39.53;;;12.80;1.00;;;;;;5033251;28;20098;-71
2022/12/26 10:10:40;;;;;;;63.95;38.83;;;12.80;1.00;;;;;;5030732;28;20036;-71
2022/12/26 10:13:21;;;;;;;60.13;38.75;;;12.90;1.00;;;;;;5032396;28;20480;-70
2022/12/26 10:16:36;;;;;;;57.42;36.63;;;12.90;1.00;;;;;;5033791;28;20026;-70
2022/12/26 10:19:32;;;;;;;58.03;37.95;;;12.80;1.00;;;;;;5038647;28;20037;-70
2022/12/26 10:22:10;;;;;;;60.85;36.97;;;12.70;1.00;;;;;;5042105;28;20075;-71
2022/12/26 10:24:42;;;;;;;60.45;38.92;;;12.70;1.00;;;;;;5037509;28;20037;-71
2022/12/26 10:27:15;;;;;;;64.88;39.22;;;12.90;1.00;;;;;;5032029;28;20049;-71
2022/12/26 10:30:09;;;;;;;67.20;41.00;;;12.80;1.00;;;;;;5032666;28;20076;-71
2022/12/26 10:32:46;;;;;;;61.40;39.58;;;12.70;1.00;;;;;;5020717;28;20114;-71
2022/12/26 10:35:28;;;;;;;63.05;39.03;;;12.90;1.00;;;;;;5032969;28;20045;-71
2022/12/26 10:37:58;;;;;;;62.45;40.22;;;12.90;1.00;;;;;;5030370;28;20124;-71
2022/12/26 10:40:30;;;;;;;63.63;37.60;;;12.90;1.00;;;;;;5028111;28;20032;-70
2022/12/26 10:43:16;;;;;;;67.00;41.55;;;13.00;1.00;;;;;;5032098;28;20022;-71
2022/12/26 10:45:48;;;;;;;61.38;40.42;;;12.90;1.00;;;;;;5027470;28;20029;-71
2022/12/26 10:48:15;;;;;;;69.38;42.00;;;12.90;1.00;;;;;;5030377;28;20053;-71
2022/12/26 10:50:47;;;;;;;61.42;40.13;;;13.10;1.00;;;;;;5030979;28;20021;-71
2022/12/26 10:53:14;;;;;;;60.20;39.25;;;13.10;1.00;;;;;;5045502;28;20063;-71
2022/12/26 10:55:40;;;;;;;61.25;39.67;;;13.00;1.00;;;;;;5031628;28;20029;-71
2022/12/26 10:58:22;;;;;;;57.47;37.58;;;13.10;1.00;;;;;;5032356;28;20045;-71
2022/12/26 11:00:48;;;;;;;61.42;38.97;;;12.80;1.00;;;;;;5032770;28;20033;-71
2022/12/26 11:03:16;;;;;;;61.25;38.63;;;12.60;1.00;;;;;;5032586;28;20037;-71
2022/12/26 11:05:46;;;;;;;60.40;38.50;;;12.70;1.00;;;;;;5026514;28;20029;-71
2022/12/26 11:08:45;;;;;;;62.58;40.33;;;12.90;1.00;;;;;;5028451;28;20033;-71
2022/12/26 11:11:22;;;;;;;62.72;38.90;;;12.60;1.00;;;;;;5032393;28;20029;-71
2022/12/26 11:13:53;;;;;;;60.83;40.30;;;12.80;1.00;;;;;;5032138;28;20491;-71
2022/12/26 11:16:28;;;;;;;61.65;39.55;;;12.80;1.00;;;;;;5022903;28;20029;-71
2022/12/26 11:18:56;;;;;;;64.00;41.00;;;12.90;1.00;;;;;;5030886;28;20379;-71
2022/12/26 11:21:25;;;;;;;59.22;38.42;;;12.80;1.00;;;;;;5032294;28;20033;-71
2022/12/26 11:23:52;;;;;;;65.85;41.20;;;12.80;1.00;;;;;;5031761;28;20452;-71
2022/12/26 11:26:20;;;;;;;68.05;42.67;;;12.90;1.00;;;;;;5032230;28;20479;-71
2022/12/26 11:28:45;;;;;;;62.40;39.55;;;12.90;1.00;;;;;;5030303;28;20026;-71
2022/12/26 11:31:26;;;;;;;64.07;41.67;;;12.90;1.00;;;;;;5028236;28;20102;-71
2022/12/26 11:33:52;;;;;;;61.63;40.45;;;12.90;1.00;;;;;;5032106;28;20025;-71
2022/12/26 11:36:22;;;;;;;64.57;41.08;;;13.00;1.00;;;;;;5025128;28;20034;-71
2022/12/26 11:39:05;;;;;;;60.30;39.25;;;13.00;1.00;;;;;;5031833;28;20036;-71
2022/12/26 11:41:41;;;;;;;64.65;42.72;;;12.90;1.00;;;;;;5024839;28;20479;-71
2022/12/26 11:44:39;;;;;;;67.25;42.58;;;12.80;1.00;;;;;;5023401;28;20109;-71
2022/12/26 11:47:33;;;;;;;61.20;39.35;;;13.00;1.00;;;;;;5032171;28;20022;-71
2022/12/26 11:50:08;;;;;;;61.95;39.25;;;12.90;1.00;;;;;;5021545;28;20114;-71
2022/12/26 11:52:36;;;;;;;60.38;39.67;;;12.90;1.00;;;;;;5044819;28;20017;-71
2022/12/26 11:55:26;;;;;;;61.75;41.00;;;12.80;1.00;;;;;;5028373;28;20032;-72
2022/12/26 11:58:20;;;;;;;63.38;41.03;;;12.90;1.00;;;;;;5031723;28;20478;-71
2022/12/26 12:00:48;;;;;;;60.47;39.65;;;13.00;1.00;;;;;;5022320;28;20070;-71
2022/12/26 12:03:31;;;;;;;59.22;39.28;;;13.00;1.00;;;;;;5020402;28;20523;-72
2022/12/26 12:06:02;;;;;;;62.20;39.28;;;13.00;1.00;;;;;;5032231;28;20044;-71
2022/12/26 12:08:45;;;;;;;62.83;42.08;;;12.90;1.00;;;;;;5031336;28;20759;-71
2022/12/26 12:11:32;;;;;;;59.15;41.30;;;12.80;1.00;;;;;;5029357;28;20029;-71
2022/12/26 12:14:25;;;;;;;59.97;39.97;;;12.90;1.00;;;;;;5019247;28;20030;-71
2022/12/26 12:17:29;;;;;;;64.60;42.15;;;12.80;1.00;;;;;;5026886;28;20049;-71
2022/12/26 12:20:30;;;;;;;64.40;41.40;;;12.90;1.00;;;;;;5007680;28;20038;-71
2022/12/26 12:26:34;;;;;;;58.85;38.13;;;12.90;1.00;;;;;;5021507;28;20266;-71
2022/12/26 12:29:14;;;;;;;59.25;38.80;;;12.80;1.00;;;;;;5029829;28;20087;-71
2022/12/26 12:31:52;;;;;;;53.72;36.05;;;12.90;1.00;;;;;;5030109;28;20053;-71
2022/12/26 12:34:55;;;;;;;58.42;38.08;;;12.90;1.00;;;;;;5018533;28;20096;-71
2022/12/26 12:37:46;;;;;;;57.63;39.45;;;12.90;1.00;;;;;;5029064;28;20037;-71
2022/12/26 12:40:15;;;;;;;62.40;40.22;;;12.80;1.00;;;;;;5027581;28;20033;-71
2022/12/26 12:42:51;;;;;;;63.63;39.63;;;12.70;1.00;;;;;;5031542;28;20028;-71
2022/12/26 12:45:41;;;;;;;58.25;38.20;;;12.90;1.00;;;;;;5031342;28;20075;-71
2022/12/26 12:48:24;;;;;;;61.97;40.90;;;13.00;1.00;;;;;;5020122;28;20436;-71
2022/12/26 12:50:53;;;;;;;59.42;38.75;;;12.90;1.00;;;;;;5029874;28;20033;-71
2022/12/26 12:54:00;;;;;;;57.22;39.22;;;13.10;1.00;;;;;;5045420;28;20029;-71
2022/12/26 12:56:52;;;;;;;56.25;38.28;;;12.90;1.00;;;;;;5008130;28;20132;-71
2022/12/26 12:59:35;;;;;;;60.58;39.45;;;13.00;1.00;;;;;;5031052;28;20036;-71
2022/12/26 13:02:12;;;;;;;54.83;37.08;;;13.00;1.00;;;;;;5018811;28;20144;-72
2022/12/26 13:04:42;;;;;;;60.15;38.85;;;13.10;1.00;;;;;;5025986;28;20511;-71
2022/12/26 13:07:22;;;;;;;59.10;39.45;;;13.10;1.00;;;;;;5030256;28;20056;-71
2022/12/26 13:10:01;;;;;;;59.92;40.80;;;13.10;1.00;;;;;;5024177;28;20037;-72
2022/12/26 13:12:34;;;;;;;55.75;38.47;;;13.10;1.00;;;;;;5032925;28;20018;-71
2022/12/26 13:15:22;;;;;;;62.97;40.90;;;13.10;1.00;;;;;;5025303;28;20103;-72
2022/12/26 13:18:13;;;;;;;58.55;38.95;;;13.10;1.00;;;;;;5030663;28;20045;-72
2022/12/26 13:21:02;;;;;;;55.55;39.17;;;13.10;1.00;;;;;;5021256;28;20507;-71
2022/12/26 13:26:24;;;;;;;63.38;42.10;;;13.10;1.00;;;;;;5035204;28;20032;-71
2022/12/26 13:28:59;;;;;;;64.90;41.90;;;13.10;1.00;;;;;;5031517;28;20027;-71
2022/12/26 13:31:31;;;;;;;67.82;43.72;;;13.10;1.00;;;;;;5028637;28;20486;-72
2022/12/26 13:33:56;;;;;;;60.60;40.72;;;13.10;1.00;;;;;;5034403;28;20112;-71
2022/12/26 13:36:55;;;;;;;59.10;41.33;;;13.10;1.00;;;;;;5026549;28;20112;-71
2022/12/26 13:39:26;;;;;;;65.47;42.88;;;13.00;1.00;;;;;;5029794;28;20021;-72
2022/12/26 13:44:41;;;;;;;64.30;42.70;;;13.00;1.00;;;;;;5019323;28;20511;-71
2022/12/26 13:47:29;;;;;;;60.88;40.17;;;13.00;1.00;;;;;;5028608;28;20045;-71
2022/12/26 13:49:54;;;;;;;57.65;38.53;;;13.00;1.00;;;;;;5034508;28;20037;-72
2022/12/26 13:52:34;;;;;;;61.50;40.72;;;13.10;1.00;;;;;;5023934;28;20030;-71
2022/12/26 13:55:11;;;;;;;60.53;39.72;;;13.00;1.00;;;;;;5032990;28;20068;-71
2022/12/26 13:57:38;;;;;;;58.03;39.05;;;12.90;1.00;;;;;;5033977;28;20052;-72
2022/12/26 14:00:23;;;;;;;52.60;37.13;;;12.80;1.00;;;;;;5033654;28;20033;-71
2022/12/26 14:02:54;;;;;;;58.00;40.22;;;12.90;1.00;;;;;;5034214;28;20042;-72
2022/12/26 14:05:42;;;;;;;59.92;41.95;;;13.10;1.00;;;;;;5024849;28;20099;-71
2022/12/26 14:08:42;;;;;;;52.70;37.58;;;13.20;1.00;;;;;;5034204;28;20043;-72
2022/12/26 14:11:38;;;;;;;53.88;37.63;;;13.00;1.00;;;;;;5027667;28;20109;-71
2022/12/26 14:14:41;;;;;;;52.50;37.95;;;13.00;1.00;;;;;;5029447;28;20033;-71
2022/12/26 14:17:39;;;;;;;52.05;36.60;;;13.00;1.00;;;;;;5028681;28;20091;-71
2022/12/26 14:23:40;;;;;;;57.47;38.13;;;13.10;1.00;;;;;;4999125;28;20103;-71
2022/12/26 14:26:33;;;;;;;52.95;38.35;;;13.20;1.00;;;;;;5040145;28;20029;-72
2022/12/26 14:29:27;;;;;;;53.83;36.70;;;13.30;1.00;;;;;;5035696;28;20030;-72
2022/12/26 14:32:04;;;;;;;51.65;36.92;;;13.30;1.00;;;;;;5027008;28;20037;-72
2022/12/26 14:34:50;;;;;;;54.20;37.10;;;13.30;1.00;;;;;;5022426;28;20047;-71
2022/12/26 14:37:43;;;;;;;60.30;40.85;;;13.30;1.00;;;;;;5031876;28;20045;-71
2022/12/26 14:40:24;;;;;;;66.38;42.78;;;13.20;1.00;;;;;;5031918;28;20096;-72
2022/12/26 14:43:11;;;;;;;64.57;42.83;;;13.20;1.00;;;;;;5033267;28;20052;-71
2022/12/26 14:45:40;;;;;;;62.70;40.97;;;13.10;1.00;;;;;;5031716;28;20502;-72
2022/12/26 14:48:14;;;;;;;64.88;42.33;;;13.30;1.00;;;;;;5033616;28;20364;-71
2022/12/26 14:50:43;;;;;;;70.10;43.88;;;13.20;1.00;;;;;;5031424;28;20029;-72
2022/12/26 14:53:34;;;;;;;68.70;42.75;;;13.00;1.00;;;;;;5046774;28;20359;-72
2022/12/26 14:56:09;;;;;;;64.75;42.80;;;13.00;1.00;;;;;;5019691;28;20022;-72
2022/12/26 14:58:51;;;;;;;58.55;40.28;;;13.10;1.00;;;;;;5031428;28;20112;-72
2022/12/26 15:01:23;;;;;;;63.85;41.75;;;13.10;1.00;;;;;;5032430;28;20479;-72
2022/12/26 15:04:29;;;;;;;58.65;40.08;;;13.10;1.00;;;;;;5023672;28;20543;-73
2022/12/26 15:07:18;;;;;;;64.53;40.65;;;13.00;1.00;;;;;;5022359;28;20106;-72
2022/12/26 15:09:46;;;;;;;55.38;40.13;;;12.90;1.00;;;;;;5029075;28;20384;-72
2022/12/26 15:12:32;;;;;;;57.90;40.22;;;12.90;1.00;;;;;;5030111;28;20021;-72
2022/12/26 15:15:36;;;;;;;58.25;40.38;;;12.90;1.00;;;;;;5032482;28;20064;-72
2022/12/26 15:18:16;;;;;;;59.10;38.55;;;12.80;1.00;;;;;;5027078;28;20038;-72
2022/12/26 15:21:19;;;;;;;56.03;38.47;;;12.80;1.00;;;;;;5030843;28;20084;-72
2022/12/26 15:24:19;;;;;;;49.85;34.83;;;12.90;1.00;;;;;;5039014;28;20052;-72
2022/12/26 15:27:11;;;;;;;53.03;37.58;;;12.90;1.00;;;;;;5019092;28;20026;-72
2022/12/26 15:30:05;;;;;;;51.53;36.10;;;12.80;1.00;;;;;;5030517;28;20072;-72
2022/12/26 15:33:03;;;;;;;52.35;36.78;;;12.80;1.00;;;;;;5019207;28;20116;-72
2022/12/26 15:35:51;;;;;;;54.17;39.17;;;12.90;1.00;;;;;;5012327;28;20064;-72
2022/12/26 15:38:25;;;;;;;50.35;37.13;;;12.80;1.00;;;;;;5032415;28;20041;-72
2022/12/26 15:41:15;;;;;;;50.53;35.63;;;12.90;1.00;;;;;;5024295;28;20426;-72
2022/12/26 15:44:15;;;;;;;54.63;37.83;;;12.90;1.00;;;;;;5032315;28;20344;-72